Time,TemperatureF,DewpointF,PressureIn,WindDirection,WindDirectionDegrees,WindSpeedMPH,WindSpeedGustMPH,Humidity,HourlyPrecipIn,Conditions,Clouds,dailyrainin,SoftwareType,DateUTC
2013-11-07 00:02:00,34.3,30.4,-100.00,West,274,0.0,0.0,85,0.00,,,0.00,meteohub,2013-11-07 06:02:00,
2013-11-07 00:07:00,34.3,30.4,-100.00,West,273,0.0,0.0,85,0.00,,,0.00,meteohub,2013-11-07 06:07:00,
2013-11-07 00:12:00,34.3,30.4,-100.00,West,274,0.0,0.0,85,0.00,,,0.00,meteohub,2013-11-07 06:12:00,
2013-11-07 00:17:00,34.3,30.4,-100.00,West,273,0.0,0.0,85,0.00,,,0.00,meteohub,2013-11-07 06:17:00,
2013-11-07 00:22:00,34.3,30.4,-100.00,West,274,0.0,0.0,85,0.00,,,0.00,meteohub,2013-11-07 06:22:00,
2013-11-07 00:27:00,34.2,29.8,-100.00,West,273,0.0,0.0,84,0.00,,,0.00,meteohub,2013-11-07 06:27:00,
2013-11-07 00:32:00,34.0,30.0,-100.00,West,274,0.0,0.0,85,0.00,,,0.00,meteohub,2013-11-07 06:32:00,
2013-11-07 00:37:00,34.0,30.0,-100.00,West,274,0.0,0.0,85,0.00,,,0.00,meteohub,2013-11-07 06:37:00,
2013-11-07 00:42:00,33.8,29.8,-100.00,West,273,0.0,0.0,85,0.00,,,0.00,meteohub,2013-11-07 06:42:00,
2013-11-07 00:47:00,33.8,29.8,-100.00,West,273,0.0,0.0,85,0.00,,,0.00,meteohub,2013-11-07 06:47:00,
2013-11-07 00:52:00,33.6,29.7,-100.00,West,273,0.0,0.0,85,0.00,,,0.00,meteohub,2013-11-07 06:52:00,
2013-11-07 00:57:00,33.6,29.7,-100.00,West,273,0.0,0.0,85,0.00,,,0.00,meteohub,2013-11-07 06:57:00,
2013-11-07 01:02:00,33.4,29.5,-100.00,West,273,0.0,0.0,85,0.00,,,0.00,meteohub,2013-11-07 07:02:00,
2013-11-07 01:07:00,33.3,29.3,-100.00,West,273,0.0,0.0,85,0.00,,,0.00,meteohub,2013-11-07 07:07:00,
2013-11-07 01:12:00,33.1,29.1,-100.00,West,273,0.0,0.0,85,0.00,,,0.00,meteohub,2013-11-07 07:12:00,
2013-11-07 01:17:00,32.9,28.9,-100.00,West,277,0.0,0.0,85,0.00,,,0.00,meteohub,2013-11-07 07:17:00,
2013-11-07 01:22:00,33.1,29.3,-100.00,West,277,0.0,0.0,86,0.00,,,0.00,meteohub,2013-11-07 07:22:00,
2013-11-07 01:27:00,33.3,29.5,-100.00,West,277,0.0,0.0,86,0.00,,,0.00,meteohub,2013-11-07 07:27:00,
2013-11-07 01:32:00,33.3,29.3,-100.00,West,277,0.0,0.0,85,0.00,,,0.00,meteohub,2013-11-07 07:32:00,
2013-11-07 01:37:00,33.3,29.3,-100.00,West,277,0.0,0.0,85,0.00,,,0.00,meteohub,2013-11-07 07:37:00,
2013-11-07 01:42:00,33.3,29.3,-100.00,West,276,0.0,0.0,85,0.00,,,0.00,meteohub,2013-11-07 07:42:00,
2013-11-07 01:47:00,33.1,29.1,-100.00,West,277,0.0,0.0,85,0.00,,,0.00,meteohub,2013-11-07 07:47:00,
2013-11-07 01:52:00,32.9,28.9,-100.00,West,277,0.0,0.0,85,0.00,,,0.00,meteohub,2013-11-07 07:52:00,
2013-11-07 01:57:00,32.7,28.8,-100.00,West,276,0.0,0.0,85,0.00,,,0.00,meteohub,2013-11-07 07:57:00,
2013-11-07 02:02:00,32.7,28.8,-100.00,West,277,0.0,0.0,85,0.00,,,0.00,meteohub,2013-11-07 08:02:00,
2013-11-07 02:07:00,32.7,28.8,-100.00,West,277,0.0,0.0,85,0.00,,,0.00,meteohub,2013-11-07 08:07:00,
2013-11-07 02:12:00,32.5,28.6,-100.00,West,276,0.0,0.0,85,0.00,,,0.00,meteohub,2013-11-07 08:12:00,
2013-11-07 02:17:00,32.5,28.6,-100.00,West,277,0.0,0.0,85,0.00,,,0.00,meteohub,2013-11-07 08:17:00,
2013-11-07 02:22:00,32.4,28.4,-100.00,West,277,0.0,0.0,85,0.00,,,0.00,meteohub,2013-11-07 08:22:00,
2013-11-07 02:27:00,32.4,28.6,-100.00,West,278,0.0,0.0,86,0.00,,,0.00,meteohub,2013-11-07 08:27:00,
2013-11-07 02:32:00,32.2,28.4,-100.00,West,277,0.0,0.0,86,0.00,,,0.00,meteohub,2013-11-07 08:32:00,
2013-11-07 02:37:00,32.2,28.4,-100.00,West,278,0.0,0.0,86,0.00,,,0.00,meteohub,2013-11-07 08:37:00,
2013-11-07 02:42:00,32.2,28.4,-100.00,West,278,0.0,0.0,86,0.00,,,0.00,meteohub,2013-11-07 08:42:00,
2013-11-07 02:47:00,32.0,28.2,-100.00,West,278,0.0,0.0,86,0.00,,,0.00,meteohub,2013-11-07 08:47:00,
2013-11-07 02:52:00,32.0,28.2,-100.00,West,278,0.0,0.0,86,0.00,,,0.00,meteohub,2013-11-07 08:52:00,
2013-11-07 02:57:00,32.0,28.2,-100.00,West,277,0.0,0.0,86,0.00,,,0.00,meteohub,2013-11-07 08:57:00,
2013-11-07 03:02:00,31.8,28.0,-100.00,West,277,0.0,0.0,86,0.00,,,0.00,meteohub,2013-11-07 09:02:00,
2013-11-07 03:07:00,31.8,28.0,-100.00,West,278,0.0,0.0,86,0.00,,,0.00,meteohub,2013-11-07 09:07:00,
2013-11-07 03:12:00,31.8,28.0,-100.00,West,278,0.0,0.0,86,0.00,,,0.00,meteohub,2013-11-07 09:12:00,
2013-11-07 03:17:00,32.0,28.2,-100.00,West,278,0.0,0.0,86,0.00,,,0.00,meteohub,2013-11-07 09:17:00,
2013-11-07 03:22:00,32.2,28.8,-100.00,West,277,0.0,0.0,87,0.00,,,0.00,meteohub,2013-11-07 09:22:00,
2013-11-07 03:27:00,32.0,28.2,-100.00,West,278,0.0,0.0,86,0.00,,,0.00,meteohub,2013-11-07 09:27:00,
2013-11-07 03:32:00,31.6,27.9,-100.00,West,278,0.0,0.0,86,0.00,,,0.00,meteohub,2013-11-07 09:32:00,
2013-11-07 03:37:00,31.5,28.0,-100.00,West,277,0.0,0.0,87,0.00,,,0.00,meteohub,2013-11-07 09:37:00,
2013-11-07 03:42:00,31.3,27.5,-100.00,West,278,0.0,0.0,86,0.00,,,0.00,meteohub,2013-11-07 09:42:00,
2013-11-07 03:47:00,30.9,27.5,-100.00,West,278,0.0,0.0,87,0.00,,,0.00,meteohub,2013-11-07 09:47:00,
2013-11-07 03:52:00,30.7,27.3,-100.00,West,278,0.0,0.0,87,0.00,,,0.00,meteohub,2013-11-07 09:52:00,
2013-11-07 03:57:00,30.7,27.7,-100.00,West,278,0.0,0.0,88,0.00,,,0.00,meteohub,2013-11-07 09:57:00,
2013-11-07 04:02:00,31.1,28.0,-100.00,West,277,0.0,0.0,88,0.00,,,0.00,meteohub,2013-11-07 10:02:00,
2013-11-07 04:07:00,31.3,28.2,-100.00,West,278,0.0,0.0,88,0.00,,,0.00,meteohub,2013-11-07 10:07:00,
2013-11-07 04:12:00,31.5,28.4,-100.00,West,278,0.0,0.0,88,0.00,,,0.00,meteohub,2013-11-07 10:12:00,
2013-11-07 04:17:00,31.3,28.2,-100.00,West,278,0.0,0.0,88,0.00,,,0.00,meteohub,2013-11-07 10:17:00,
2013-11-07 04:22:00,31.1,28.0,-100.00,West,277,0.0,0.0,88,0.00,,,0.00,meteohub,2013-11-07 10:22:00,
2013-11-07 04:27:00,30.9,27.9,-100.00,West,278,0.0,0.0,88,0.00,,,0.00,meteohub,2013-11-07 10:27:00,
2013-11-07 04:32:00,30.9,27.9,-100.00,West,278,0.0,0.0,88,0.00,,,0.00,meteohub,2013-11-07 10:32:00,
2013-11-07 04:37:00,30.7,27.7,-100.00,West,277,0.0,0.0,88,0.00,,,0.00,meteohub,2013-11-07 10:37:00,
2013-11-07 04:42:00,30.7,27.9,-100.00,West,278,0.0,0.0,89,0.00,,,0.00,meteohub,2013-11-07 10:42:00,
2013-11-07 04:47:00,30.7,27.9,-100.00,West,278,0.0,0.0,89,0.00,,,0.00,meteohub,2013-11-07 10:47:00,
2013-11-07 04:52:00,30.7,27.9,-100.00,West,277,0.0,0.0,89,0.00,,,0.00,meteohub,2013-11-07 10:52:00,
2013-11-07 04:57:00,30.6,27.7,-100.00,West,278,0.0,0.0,89,0.00,,,0.00,meteohub,2013-11-07 10:57:00,
2013-11-07 05:02:00,30.4,27.5,-100.00,West,278,0.0,0.0,89,0.00,,,0.00,meteohub,2013-11-07 11:02:00,
2013-11-07 05:07:00,30.4,27.5,-100.00,West,277,0.0,0.0,89,0.00,,,0.00,meteohub,2013-11-07 11:07:00,
2013-11-07 05:12:00,30.6,27.7,-100.00,West,278,0.0,0.0,89,0.00,,,0.00,meteohub,2013-11-07 11:12:00,
2013-11-07 05:17:00,30.4,27.5,-100.00,West,278,0.0,0.0,89,0.00,,,0.00,meteohub,2013-11-07 11:17:00,
2013-11-07 05:22:00,30.0,27.1,-100.00,West,277,0.0,0.0,89,0.00,,,0.00,meteohub,2013-11-07 11:22:00,
2013-11-07 05:27:00,29.8,27.0,-100.00,West,277,0.0,0.0,89,0.00,,,0.00,meteohub,2013-11-07 11:27:00,
2013-11-07 05:32:00,29.7,26.8,-100.00,West,278,0.0,0.0,89,0.00,,,0.00,meteohub,2013-11-07 11:32:00,
2013-11-07 05:34:00,29.7,26.8,-100.00,West,277,0.0,0.0,89,0.00,,,0.00,meteohub,2013-11-07 11:34:00,
2013-11-07 05:39:00,29.3,26.4,-100.00,West,278,0.0,0.0,89,0.00,,,0.00,meteohub,2013-11-07 11:39:00,
2013-11-07 05:44:00,29.7,27.1,-100.00,West,278,0.0,0.0,90,0.00,,,0.00,meteohub,2013-11-07 11:44:00,
2013-11-07 05:49:00,30.0,27.5,-100.00,West,277,0.0,0.0,90,0.00,,,0.00,meteohub,2013-11-07 11:49:00,
2013-11-07 05:54:00,30.2,27.7,-100.00,West,277,0.0,0.0,90,0.00,,,0.00,meteohub,2013-11-07 11:54:00,
2013-11-07 05:59:00,30.2,27.7,-100.00,West,277,0.0,0.0,90,0.00,,,0.00,meteohub,2013-11-07 11:59:00,
2013-11-07 06:04:00,30.4,27.9,-100.00,West,277,0.0,0.0,90,0.00,,,0.00,meteohub,2013-11-07 12:04:00,
2013-11-07 06:09:00,30.6,28.0,-100.00,West,277,0.0,0.0,90,0.00,,,0.00,meteohub,2013-11-07 12:09:00,
2013-11-07 06:14:00,30.6,28.0,-100.00,West,277,0.0,0.0,90,0.00,,,0.00,meteohub,2013-11-07 12:14:00,
2013-11-07 06:19:00,30.4,27.9,-100.00,West,277,0.0,0.0,90,0.00,,,0.00,meteohub,2013-11-07 12:19:00,
2013-11-07 06:24:00,30.4,27.9,-100.00,West,268,0.0,0.0,90,0.00,,,0.00,meteohub,2013-11-07 12:24:00,
2013-11-07 06:29:00,30.6,28.0,-100.00,SW,229,0.0,0.0,90,0.00,,,0.00,meteohub,2013-11-07 12:29:00,
2013-11-07 06:34:00,30.7,28.4,-100.00,SW,226,0.0,0.0,91,0.00,,,0.00,meteohub,2013-11-07 12:34:00,
2013-11-07 06:39:00,30.9,28.4,-100.00,SW,225,0.0,0.0,90,0.00,,,0.00,meteohub,2013-11-07 12:39:00,
2013-11-07 06:44:00,31.1,28.6,-100.00,SW,219,0.0,0.0,90,0.00,,,0.00,meteohub,2013-11-07 12:44:00,
2013-11-07 06:49:00,31.3,28.8,-100.00,SSW,210,0.0,0.0,90,0.00,,,0.00,meteohub,2013-11-07 12:49:00,
2013-11-07 06:54:00,31.3,28.8,-100.00,SSW,209,0.0,0.0,90,0.00,,,0.00,meteohub,2013-11-07 12:54:00,
2013-11-07 06:59:00,31.5,28.9,-100.00,SSW,202,0.0,0.0,90,0.00,,,0.00,meteohub,2013-11-07 12:59:00,
2013-11-07 07:04:00,31.6,29.3,-100.00,SSW,207,0.0,0.0,91,0.00,,,0.00,meteohub,2013-11-07 13:04:00,
2013-11-07 07:09:00,31.8,29.5,-100.00,SSW,207,0.0,0.0,91,0.00,,,0.00,meteohub,2013-11-07 13:09:00,
2013-11-07 07:14:00,32.0,29.5,-100.00,SSW,207,0.0,0.0,90,0.00,,,0.00,meteohub,2013-11-07 13:14:00,
2013-11-07 07:19:00,32.4,29.8,-100.00,SSW,206,0.0,0.0,90,0.00,,,0.00,meteohub,2013-11-07 13:19:00,
2013-11-07 07:24:00,32.9,30.6,-100.00,SSW,205,0.0,0.0,91,0.00,,,0.00,meteohub,2013-11-07 13:24:00,
2013-11-07 07:29:00,33.6,31.3,-100.00,SSW,205,0.0,0.0,91,0.00,,,0.00,meteohub,2013-11-07 13:29:00,
2013-11-07 07:34:00,34.2,31.8,-100.00,SSW,205,0.0,0.0,91,0.00,,,0.00,meteohub,2013-11-07 13:34:00,
2013-11-07 07:39:00,34.5,31.8,-100.00,SSW,205,0.0,0.0,90,0.00,,,0.00,meteohub,2013-11-07 13:39:00,
2013-11-07 07:44:00,35.2,32.5,-100.00,SSW,205,0.0,0.0,90,0.01,,,0.01,meteohub,2013-11-07 13:44:00,
2013-11-07 07:49:00,35.8,32.9,-100.00,SSW,205,0.0,0.0,89,0.01,,,0.01,meteohub,2013-11-07 13:49:00,
2013-11-07 07:54:00,36.3,33.4,-100.00,SSW,205,0.0,0.0,89,0.01,,,0.01,meteohub,2013-11-07 13:54:00,
2013-11-07 07:59:00,37.0,33.8,-100.00,SSW,205,0.0,0.0,88,0.01,,,0.01,meteohub,2013-11-07 13:59:00,
2013-11-07 08:04:00,37.8,34.2,-100.00,SSW,205,0.0,0.0,87,0.01,,,0.01,meteohub,2013-11-07 14:04:00,
2013-11-07 08:09:00,38.3,34.5,-100.00,SSW,205,0.0,0.0,86,0.01,,,0.01,meteohub,2013-11-07 14:09:00,
2013-11-07 08:14:00,38.7,34.5,-100.00,SSW,205,0.0,0.0,85,0.01,,,0.01,meteohub,2013-11-07 14:14:00,
2013-11-07 08:19:00,39.4,34.9,-100.00,SW,219,0.0,0.0,84,0.01,,,0.01,meteohub,2013-11-07 14:19:00,
2013-11-07 08:24:00,39.7,35.1,-100.00,SW,217,0.0,0.0,83,0.01,,,0.01,meteohub,2013-11-07 14:24:00,
2013-11-07 08:29:00,40.1,35.1,-100.00,SW,217,0.0,0.0,82,0.01,,,0.01,meteohub,2013-11-07 14:29:00,
2013-11-07 08:34:00,40.1,34.7,-100.00,SW,229,5.0,0.0,81,0.01,,,0.01,meteohub,2013-11-07 14:34:00,
2013-11-07 08:39:00,39.7,34.7,-100.00,SW,219,2.0,10.0,82,0.00,,,0.01,meteohub,2013-11-07 14:39:00,
2013-11-07 08:44:00,40.1,35.1,-100.00,SW,217,4.0,10.0,82,0.00,,,0.01,meteohub,2013-11-07 14:44:00,
2013-11-07 08:49:00,40.8,35.8,-100.00,SW,217,1.0,10.0,82,0.00,,,0.01,meteohub,2013-11-07 14:49:00,
2013-11-07 08:54:00,41.5,36.1,-100.00,SW,224,3.0,10.0,81,0.00,,,0.01,meteohub,2013-11-07 14:54:00,
2013-11-07 08:59:00,42.3,36.5,-100.00,SW,221,0.0,13.0,80,0.00,,,0.01,meteohub,2013-11-07 14:59:00,
2013-11-07 09:04:00,42.6,36.9,-100.00,WSW,237,0.0,13.0,80,0.00,,,0.01,meteohub,2013-11-07 15:04:00,
2013-11-07 09:09:00,43.2,36.7,-100.00,WSW,244,5.0,16.0,78,0.00,,,0.01,meteohub,2013-11-07 15:09:00,
2013-11-07 09:14:00,43.7,37.0,-100.00,SSW,205,0.0,16.0,77,0.00,,,0.01,meteohub,2013-11-07 15:14:00,
2013-11-07 09:19:00,44.1,37.4,-100.00,SSW,210,6.0,16.0,77,0.00,,,0.01,meteohub,2013-11-07 15:19:00,
2013-11-07 09:24:00,43.9,36.9,-100.00,SSW,200,4.0,15.0,76,0.00,,,0.01,meteohub,2013-11-07 15:24:00,
2013-11-07 09:29:00,44.1,37.4,-100.00,SSW,207,4.0,10.0,77,0.00,,,0.01,meteohub,2013-11-07 15:29:00,
2013-11-07 09:34:00,44.2,37.2,-100.00,SW,223,3.0,11.0,76,0.00,,,0.01,meteohub,2013-11-07 15:34:00,
2013-11-07 09:39:00,44.8,37.4,-100.00,SW,215,11.0,11.0,75,0.00,,,0.01,meteohub,2013-11-07 15:39:00,
2013-11-07 09:44:00,45.0,37.6,-100.00,SW,221,5.0,11.0,75,0.00,,,0.01,meteohub,2013-11-07 15:44:00,
2013-11-07 09:49:00,45.1,37.8,-100.00,SW,234,7.0,14.0,75,0.00,,,0.01,meteohub,2013-11-07 15:49:00,
2013-11-07 09:54:00,45.9,38.1,-100.00,SSW,213,10.0,14.0,74,0.00,,,0.01,meteohub,2013-11-07 15:54:00,
2013-11-07 09:59:00,46.0,38.3,-100.00,SW,219,3.0,12.0,74,0.00,,,0.01,meteohub,2013-11-07 15:59:00,
2013-11-07 10:04:00,46.2,38.5,-100.00,SW,227,4.0,13.0,74,0.00,,,0.01,meteohub,2013-11-07 16:04:00,
2013-11-07 10:09:00,47.1,38.5,-100.00,West,264,5.0,13.0,72,0.00,,,0.01,meteohub,2013-11-07 16:09:00,
2013-11-07 10:14:00,47.5,38.5,-100.00,West,273,11.0,13.0,71,0.00,,,0.01,meteohub,2013-11-07 16:14:00,
2013-11-07 10:19:00,47.8,38.5,-100.00,WSW,240,7.0,12.0,70,0.00,,,0.01,meteohub,2013-11-07 16:19:00,
2013-11-07 10:24:00,48.4,39.0,-100.00,SW,234,4.0,13.0,70,0.00,,,0.01,meteohub,2013-11-07 16:24:00,
2013-11-07 10:29:00,48.7,39.4,-100.00,SW,233,2.0,13.0,70,0.00,,,0.01,meteohub,2013-11-07 16:29:00,
2013-11-07 10:34:00,49.5,39.4,-100.00,WSW,242,3.0,13.0,68,0.00,,,0.01,meteohub,2013-11-07 16:34:00,
2013-11-07 10:39:00,50.2,39.6,-100.00,WNW,292,11.0,11.0,67,0.00,,,0.01,meteohub,2013-11-07 16:39:00,
2013-11-07 10:44:00,50.5,39.2,-100.00,West,267,9.0,11.0,65,0.00,,,0.01,meteohub,2013-11-07 16:44:00,
2013-11-07 10:49:00,50.5,38.8,-100.00,SW,233,11.0,12.0,64,0.00,,,0.01,meteohub,2013-11-07 16:49:00,
2013-11-07 10:54:00,50.4,39.0,-100.00,SW,229,10.0,16.0,65,0.00,,,0.01,meteohub,2013-11-07 16:54:00,
2013-11-07 10:59:00,50.2,38.8,-100.00,SW,230,0.0,16.0,65,0.00,,,0.01,meteohub,2013-11-07 16:59:00,
2013-11-07 11:04:00,50.5,38.8,-100.00,WNW,303,3.0,16.0,64,0.00,,,0.01,meteohub,2013-11-07 17:04:00,
2013-11-07 11:09:00,51.3,39.6,-100.00,West,277,5.0,15.0,64,0.00,,,0.01,meteohub,2013-11-07 17:09:00,
2013-11-07 11:14:00,51.4,39.2,-100.00,SW,223,0.0,13.0,63,0.00,,,0.01,meteohub,2013-11-07 17:14:00,
2013-11-07 11:19:00,52.2,39.6,-100.00,WSW,249,3.0,12.0,62,0.00,,,0.01,meteohub,2013-11-07 17:19:00,
2013-11-07 11:24:00,52.3,39.7,-100.00,WSW,240,8.0,12.0,62,0.00,,,0.01,meteohub,2013-11-07 17:24:00,
2013-11-07 11:29:00,52.3,39.4,-100.00,WNW,288,3.0,13.0,61,0.00,,,0.01,meteohub,2013-11-07 17:29:00,
2013-11-07 11:34:00,53.1,39.2,-100.00,WNW,294,7.0,13.0,59,0.00,,,0.01,meteohub,2013-11-07 17:34:00,
2013-11-07 11:39:00,53.2,38.5,-100.00,West,266,7.0,16.0,57,0.00,,,0.01,meteohub,2013-11-07 17:39:00,
2013-11-07 11:45:00,53.8,37.9,-100.00,West,271,9.0,16.0,55,0.00,,,0.01,meteohub,2013-11-07 17:45:00,
2013-11-07 11:50:00,54.3,37.9,-100.00,WNW,291,6.0,16.0,54,0.00,,,0.01,meteohub,2013-11-07 17:50:00,
2013-11-07 11:55:00,54.5,38.1,-100.00,West,269,7.0,15.0,54,0.00,,,0.01,meteohub,2013-11-07 17:55:00,
2013-11-07 11:58:00,54.5,38.1,-100.00,WSW,257,9.0,14.0,54,0.00,,,0.01,meteohub,2013-11-07 17:58:00,
2013-11-07 12:03:00,54.9,38.5,-100.00,WSW,254,0.0,16.0,54,0.00,,,0.01,meteohub,2013-11-07 18:03:00,
2013-11-07 12:08:00,55.6,38.7,-100.00,WNW,296,5.0,16.0,53,0.00,,,0.01,meteohub,2013-11-07 18:08:00,
2013-11-07 12:13:00,55.2,37.4,-100.00,WNW,292,9.0,16.0,51,0.00,,,0.01,meteohub,2013-11-07 18:13:00,
2013-11-07 12:18:00,55.6,38.7,-100.00,West,261,3.0,14.0,53,0.00,,,0.01,meteohub,2013-11-07 18:18:00,
2013-11-07 12:23:00,55.8,37.4,-100.00,West,269,0.0,14.0,50,0.00,,,0.01,meteohub,2013-11-07 18:23:00,
2013-11-07 12:28:00,55.2,36.3,-100.00,WNW,295,7.0,13.0,49,0.00,,,0.01,meteohub,2013-11-07 18:28:00,
2013-11-07 12:33:00,54.9,36.1,-100.00,West,276,0.0,17.0,49,0.00,,,0.01,meteohub,2013-11-07 18:33:00,
2013-11-07 12:38:00,54.9,36.1,-100.00,WNW,302,4.0,17.0,49,0.00,,,0.01,meteohub,2013-11-07 18:38:00,
2013-11-07 12:43:00,55.0,36.1,-100.00,West,265,4.0,16.0,49,0.00,,,0.01,meteohub,2013-11-07 18:43:00,
2013-11-07 12:48:00,55.4,36.5,-100.00,West,276,0.0,15.0,49,0.00,,,0.01,meteohub,2013-11-07 18:48:00,
2013-11-07 12:53:00,55.9,37.0,-100.00,West,275,0.0,15.0,49,0.00,,,0.01,meteohub,2013-11-07 18:53:00,
2013-11-07 12:58:00,56.1,36.1,-100.00,West,274,5.0,13.0,47,0.00,,,0.01,meteohub,2013-11-07 18:58:00,
2013-11-07 13:03:00,55.9,36.5,-100.00,NW,306,9.0,12.0,48,0.00,,,0.01,meteohub,2013-11-07 19:03:00,
2013-11-07 13:08:00,55.2,35.4,-100.00,WNW,296,9.0,14.0,47,0.00,,,0.01,meteohub,2013-11-07 19:08:00,
2013-11-07 13:13:00,55.2,35.4,-100.00,NW,309,7.0,16.0,47,0.00,,,0.01,meteohub,2013-11-07 19:13:00,
2013-11-07 13:18:00,55.0,34.7,-100.00,West,265,16.0,16.0,46,0.00,,,0.01,meteohub,2013-11-07 19:18:00,
2013-11-07 13:23:00,55.0,35.2,-100.00,NW,306,12.0,16.0,47,0.00,,,0.01,meteohub,2013-11-07 19:23:00,
2013-11-07 13:28:00,55.2,34.9,-100.00,West,273,5.0,16.0,46,0.00,,,0.01,meteohub,2013-11-07 19:28:00,
2013-11-07 13:33:00,55.2,34.9,-100.00,WNW,291,4.0,16.0,46,0.00,,,0.01,meteohub,2013-11-07 19:33:00,
2013-11-07 13:38:00,55.2,35.4,-100.00,WNW,292,0.0,18.0,47,0.00,,,0.01,meteohub,2013-11-07 19:38:00,
2013-11-07 13:43:00,54.9,34.5,-100.00,West,274,7.0,18.0,46,0.00,,,0.01,meteohub,2013-11-07 19:43:00,
2013-11-07 13:48:00,54.9,34.5,-100.00,West,276,4.0,18.0,46,0.00,,,0.01,meteohub,2013-11-07 19:48:00,
2013-11-07 13:53:00,54.9,34.0,-100.00,West,279,6.0,13.0,45,0.00,,,0.01,meteohub,2013-11-07 19:53:00,
2013-11-07 13:58:00,55.0,34.7,-100.00,WSW,241,4.0,17.0,46,0.00,,,0.01,meteohub,2013-11-07 19:58:00,
2013-11-07 14:03:00,55.6,33.4,-100.00,West,268,6.0,17.0,43,0.00,,,0.01,meteohub,2013-11-07 20:03:00,
2013-11-07 14:08:00,55.4,33.8,-100.00,WNW,300,7.0,17.0,44,0.00,,,0.01,meteohub,2013-11-07 20:08:00,
2013-11-07 14:13:00,55.2,33.6,-100.00,WSW,242,0.0,17.0,44,0.00,,,0.01,meteohub,2013-11-07 20:13:00,
2013-11-07 14:18:00,55.0,32.9,-100.00,WNW,287,9.0,17.0,43,0.00,,,0.01,meteohub,2013-11-07 20:18:00,
2013-11-07 14:23:00,54.9,32.7,-100.00,WNW,298,10.0,17.0,43,0.00,,,0.01,meteohub,2013-11-07 20:23:00,
2013-11-07 14:28:00,54.5,33.1,-100.00,WNW,290,9.0,17.0,44,0.00,,,0.01,meteohub,2013-11-07 20:28:00,
2013-11-07 14:33:00,54.5,33.6,-100.00,WSW,252,0.0,17.0,45,0.00,,,0.01,meteohub,2013-11-07 20:33:00,
2013-11-07 14:38:00,54.3,32.9,-100.00,NW,307,16.0,17.0,44,0.00,,,0.01,meteohub,2013-11-07 20:38:00,
2013-11-07 14:43:00,54.0,32.0,-100.00,West,280,0.0,16.0,43,0.00,,,0.01,meteohub,2013-11-07 20:43:00,
2013-11-07 14:49:00,54.0,32.5,-100.00,WNW,286,1.0,18.0,44,0.00,,,0.01,meteohub,2013-11-07 20:49:00,
2013-11-07 14:54:00,54.0,32.0,-100.00,WNW,300,7.0,21.0,43,0.00,,,0.01,meteohub,2013-11-07 20:54:00,
2013-11-07 14:59:00,53.8,31.8,-100.00,West,281,4.0,21.0,43,0.00,,,0.01,meteohub,2013-11-07 20:59:00,
2013-11-07 15:04:00,53.8,32.4,-100.00,WNW,292,8.0,21.0,44,0.00,,,0.01,meteohub,2013-11-07 21:04:00,
2013-11-07 15:09:00,53.8,32.4,-100.00,WSW,242,3.0,18.0,44,0.00,,,0.01,meteohub,2013-11-07 21:09:00,
2013-11-07 15:14:00,53.8,32.9,-100.00,West,262,3.0,14.0,45,0.00,,,0.01,meteohub,2013-11-07 21:14:00,
2013-11-07 15:19:00,53.4,32.5,-100.00,West,271,6.0,16.0,45,0.00,,,0.01,meteohub,2013-11-07 21:19:00,
2013-11-07 15:24:00,53.2,32.4,-100.00,WNW,290,5.0,16.0,45,0.00,,,0.01,meteohub,2013-11-07 21:24:00,
2013-11-07 15:29:00,53.1,32.4,-100.00,West,281,0.0,16.0,45,0.00,,,0.01,meteohub,2013-11-07 21:29:00,
2013-11-07 15:34:00,53.1,32.4,-100.00,WNW,302,1.0,14.0,45,0.00,,,0.01,meteohub,2013-11-07 21:34:00,
2013-11-07 15:39:00,52.9,32.2,-100.00,WSW,253,5.0,14.0,45,0.00,,,0.01,meteohub,2013-11-07 21:39:00,
2013-11-07 15:44:00,52.5,32.4,-100.00,WSW,252,1.0,17.0,46,0.00,,,0.01,meteohub,2013-11-07 21:44:00,
2013-11-07 15:49:00,52.5,32.4,-100.00,West,280,0.0,17.0,46,0.00,,,0.01,meteohub,2013-11-07 21:49:00,
2013-11-07 15:54:00,52.3,32.2,-100.00,West,275,4.0,17.0,46,0.00,,,0.01,meteohub,2013-11-07 21:54:00,
2013-11-07 15:59:00,52.2,32.0,-100.00,WNW,299,4.0,14.0,46,0.00,,,0.01,meteohub,2013-11-07 21:59:00,
2013-11-07 16:04:00,52.0,31.8,-100.00,WNW,291,4.0,14.0,46,0.00,,,0.01,meteohub,2013-11-07 22:04:00,
2013-11-07 16:09:00,51.8,32.2,-100.00,West,281,2.0,14.0,47,0.00,,,0.01,meteohub,2013-11-07 22:09:00,
2013-11-07 16:14:00,51.6,32.0,-100.00,West,277,5.0,12.0,47,0.00,,,0.01,meteohub,2013-11-07 22:14:00,
2013-11-07 16:19:00,51.4,31.3,-100.00,West,267,0.0,12.0,46,0.00,,,0.01,meteohub,2013-11-07 22:19:00,
2013-11-07 16:24:00,51.3,31.6,-100.00,West,280,1.0,12.0,47,0.00,,,0.01,meteohub,2013-11-07 22:24:00,
2013-11-07 16:29:00,51.1,31.6,-100.00,WNW,289,0.0,12.0,47,0.00,,,0.01,meteohub,2013-11-07 22:29:00,
2013-11-07 16:34:00,50.9,31.5,-100.00,WNW,284,0.0,12.0,47,0.00,,,0.01,meteohub,2013-11-07 22:34:00,
2013-11-07 16:39:00,50.5,31.1,-100.00,West,281,0.0,2.0,47,0.00,,,0.01,meteohub,2013-11-07 22:39:00,
2013-11-07 16:44:00,50.4,31.5,-100.00,WNW,282,0.0,2.0,48,0.00,,,0.01,meteohub,2013-11-07 22:44:00,
2013-11-07 16:49:00,49.8,31.5,-100.00,West,272,0.0,1.0,49,0.00,,,0.01,meteohub,2013-11-07 22:49:00,
2013-11-07 16:54:00,49.5,31.1,-100.00,WNW,288,0.0,1.0,49,0.00,,,0.01,meteohub,2013-11-07 22:54:00,
2013-11-07 16:59:00,49.1,31.3,-100.00,NW,304,0.0,1.0,50,0.00,,,0.01,meteohub,2013-11-07 22:59:00,
2013-11-07 17:04:00,48.7,30.9,-100.00,West,277,0.0,1.0,50,0.00,,,0.01,meteohub,2013-11-07 23:04:00,
2013-11-07 17:09:00,48.6,31.3,-100.00,West,277,0.0,1.0,51,0.00,,,0.01,meteohub,2013-11-07 23:09:00,
2013-11-07 17:14:00,48.2,30.9,-100.00,West,275,0.0,1.0,51,0.00,,,0.01,meteohub,2013-11-07 23:14:00,
2013-11-07 17:19:00,47.8,31.1,-100.00,West,279,0.0,0.0,52,0.00,,,0.01,meteohub,2013-11-07 23:19:00,
2013-11-07 17:24:00,47.5,30.7,-100.00,West,279,0.0,0.0,52,0.00,,,0.01,meteohub,2013-11-07 23:24:00,
2013-11-07 17:29:00,47.1,30.9,-100.00,West,279,0.0,0.0,53,0.00,,,0.01,meteohub,2013-11-07 23:29:00,
2013-11-07 17:34:00,46.8,30.9,-100.00,West,279,0.0,0.0,54,0.00,,,0.01,meteohub,2013-11-07 23:34:00,
2013-11-07 17:39:00,46.6,31.3,-100.00,West,279,0.0,0.0,55,0.00,,,0.01,meteohub,2013-11-07 23:39:00,
2013-11-07 17:44:00,46.2,30.9,-100.00,West,279,0.0,0.0,55,0.00,,,0.01,meteohub,2013-11-07 23:44:00,
2013-11-07 17:49:00,45.9,31.1,-100.00,West,279,0.0,0.0,56,0.00,,,0.01,meteohub,2013-11-07 23:49:00,
2013-11-07 17:54:00,45.7,31.3,-100.00,West,279,0.0,0.0,57,0.00,,,0.01,meteohub,2013-11-07 23:54:00,
2013-11-07 17:59:00,45.3,30.9,-100.00,West,279,0.0,0.0,57,0.00,,,0.01,meteohub,2013-11-07 23:59:00,
2013-11-07 18:04:00,45.0,30.6,-100.00,West,279,0.0,0.0,57,0.00,,,0.01,meteohub,2013-11-08 00:04:00,
2013-11-07 18:09:00,44.8,30.9,-100.00,West,279,0.0,0.0,58,0.00,,,0.00,meteohub,2013-11-08 00:09:00,
2013-11-07 18:14:00,44.2,30.7,-100.00,West,279,0.0,0.0,59,0.00,,,0.00,meteohub,2013-11-08 00:14:00,
2013-11-07 18:19:00,44.1,30.7,-100.00,West,279,0.0,0.0,59,0.00,,,0.00,meteohub,2013-11-08 00:19:00,
2013-11-07 18:24:00,43.7,30.7,-100.00,West,279,0.0,0.0,60,0.00,,,0.00,meteohub,2013-11-08 00:24:00,
2013-11-07 18:29:00,43.3,30.4,-100.00,West,279,0.0,0.0,60,0.00,,,0.00,meteohub,2013-11-08 00:29:00,
2013-11-07 18:34:00,43.0,30.0,-100.00,West,279,0.0,0.0,60,0.00,,,0.00,meteohub,2013-11-08 00:34:00,
2013-11-07 18:39:00,42.6,30.2,-100.00,West,279,0.0,0.0,61,0.00,,,0.00,meteohub,2013-11-08 00:39:00,
2013-11-07 18:44:00,42.4,30.0,-100.00,West,279,0.0,0.0,61,0.00,,,0.00,meteohub,2013-11-08 00:44:00,
2013-11-07 18:49:00,42.4,30.0,-100.00,West,279,0.0,0.0,61,0.00,,,0.00,meteohub,2013-11-08 00:49:00,
2013-11-07 18:54:00,42.4,30.4,-100.00,West,279,0.0,0.0,62,0.00,,,0.00,meteohub,2013-11-08 00:54:00,
2013-11-07 18:59:00,42.4,30.0,-100.00,West,279,0.0,0.0,61,0.00,,,0.00,meteohub,2013-11-08 00:59:00,
2013-11-07 19:04:00,42.6,30.2,-100.00,West,279,0.0,0.0,61,0.00,,,0.00,meteohub,2013-11-08 01:04:00,
2013-11-07 19:09:00,42.8,30.2,-100.00,West,279,0.0,0.0,61,0.00,,,0.00,meteohub,2013-11-08 01:09:00,
2013-11-07 19:14:00,42.6,30.2,-100.00,West,279,0.0,0.0,61,0.00,,,0.00,meteohub,2013-11-08 01:14:00,
2013-11-07 19:19:00,42.6,29.7,-100.00,WNW,284,1.0,0.0,60,0.00,,,0.00,meteohub,2013-11-08 01:19:00,
2013-11-07 19:24:00,42.6,29.7,-100.00,West,275,0.0,0.0,60,0.00,,,0.00,meteohub,2013-11-08 01:24:00,
2013-11-07 19:29:00,42.6,29.7,-100.00,West,273,0.0,1.0,60,0.00,,,0.00,meteohub,2013-11-08 01:29:00,
2013-11-07 19:34:00,42.6,30.2,-100.00,West,261,0.0,1.0,61,0.00,,,0.00,meteohub,2013-11-08 01:34:00,
2013-11-07 19:39:00,42.6,30.2,-100.00,West,259,0.0,2.0,61,0.00,,,0.00,meteohub,2013-11-08 01:39:00,
2013-11-07 19:44:00,42.6,29.7,-100.00,West,281,0.0,2.0,60,0.00,,,0.00,meteohub,2013-11-08 01:44:00,
2013-11-07 19:49:00,42.6,30.2,-100.00,West,267,0.0,2.0,61,0.00,,,0.00,meteohub,2013-11-08 01:49:00,
2013-11-07 19:54:00,42.4,30.0,-100.00,West,272,0.0,1.0,61,0.00,,,0.00,meteohub,2013-11-08 01:54:00,
2013-11-07 19:59:00,42.4,30.0,-100.00,West,273,0.0,1.0,61,0.00,,,0.00,meteohub,2013-11-08 01:59:00,
2013-11-07 20:04:00,42.4,30.0,-100.00,West,278,0.0,1.0,61,0.00,,,0.00,meteohub,2013-11-08 02:04:00,
2013-11-07 20:09:00,42.4,30.0,-100.00,WNW,294,0.0,1.0,61,0.00,,,0.00,meteohub,2013-11-08 02:09:00,
2013-11-07 20:14:00,42.4,30.0,-100.00,West,274,0.0,1.0,61,0.00,,,0.00,meteohub,2013-11-08 02:14:00,
2013-11-07 20:19:00,42.3,30.2,-100.00,WNW,288,0.0,1.0,62,0.00,,,0.00,meteohub,2013-11-08 02:19:00,
2013-11-07 20:24:00,42.1,30.0,-100.00,WNW,290,0.0,1.0,62,0.00,,,0.00,meteohub,2013-11-08 02:24:00,
2013-11-07 20:29:00,41.9,29.8,-100.00,WNW,294,0.0,1.0,62,0.00,,,0.00,meteohub,2013-11-08 02:29:00,
2013-11-07 20:34:00,41.5,29.8,-100.00,WNW,296,0.0,0.0,63,0.00,,,0.00,meteohub,2013-11-08 02:34:00,
2013-11-07 20:39:00,41.4,29.7,-100.00,WNW,296,0.0,0.0,63,0.00,,,0.00,meteohub,2013-11-08 02:39:00,
2013-11-07 20:44:00,41.2,30.0,-100.00,WNW,296,0.0,0.0,64,0.00,,,0.00,meteohub,2013-11-08 02:44:00,
2013-11-07 20:49:00,40.6,29.8,-100.00,WNW,296,0.0,0.0,65,0.00,,,0.00,meteohub,2013-11-08 02:49:00,
2013-11-07 20:54:00,40.5,29.7,-100.00,WNW,298,0.0,0.0,65,0.00,,,0.00,meteohub,2013-11-08 02:54:00,
2013-11-07 20:59:00,40.5,30.0,-100.00,WNW,298,0.0,0.0,66,0.00,,,0.00,meteohub,2013-11-08 02:59:00,
2013-11-07 21:04:00,40.5,30.0,-100.00,WNW,297,0.0,0.0,66,0.00,,,0.00,meteohub,2013-11-08 03:04:00,
2013-11-07 21:09:00,40.3,29.8,-100.00,WNW,296,0.0,0.0,66,0.00,,,0.00,meteohub,2013-11-08 03:09:00,
2013-11-07 21:14:00,39.9,29.5,-100.00,WNW,297,0.0,0.0,66,0.00,,,0.00,meteohub,2013-11-08 03:14:00,
2013-11-07 21:19:00,39.9,29.8,-100.00,WNW,296,0.0,0.0,67,0.00,,,0.00,meteohub,2013-11-08 03:19:00,
2013-11-07 21:25:00,39.9,29.8,-100.00,WNW,297,0.0,0.0,67,0.00,,,0.00,meteohub,2013-11-08 03:25:00,
2013-11-07 21:30:00,39.6,29.5,-100.00,WNW,297,0.0,0.0,67,0.00,,,0.00,meteohub,2013-11-08 03:30:00,
2013-11-07 21:35:00,39.0,29.3,-100.00,WNW,297,0.0,0.0,68,0.00,,,0.00,meteohub,2013-11-08 03:35:00,
2013-11-07 21:40:00,38.7,28.9,-100.00,WNW,296,0.0,0.0,68,0.00,,,0.00,meteohub,2013-11-08 03:40:00,
2013-11-07 21:45:00,38.1,29.1,-100.00,WNW,297,0.0,0.0,70,0.00,,,0.00,meteohub,2013-11-08 03:45:00,
2013-11-07 21:50:00,38.3,29.3,-100.00,WNW,297,0.0,0.0,70,0.00,,,0.00,meteohub,2013-11-08 03:50:00,
2013-11-07 21:55:00,38.5,29.8,-100.00,WNW,296,0.0,0.0,71,0.00,,,0.00,meteohub,2013-11-08 03:55:00,
2013-11-07 22:00:00,38.7,30.0,-100.00,WNW,296,0.0,0.0,71,0.00,,,0.00,meteohub,2013-11-08 04:00:00,
2013-11-07 22:05:00,38.7,30.0,-100.00,WNW,295,0.0,0.0,71,0.00,,,0.00,meteohub,2013-11-08 04:05:00,
2013-11-07 22:10:00,38.7,29.7,-100.00,WNW,295,0.0,0.0,70,0.00,,,0.00,meteohub,2013-11-08 04:10:00,
2013-11-07 22:15:00,38.3,29.7,-100.00,WNW,295,0.0,0.0,71,0.00,,,0.00,meteohub,2013-11-08 04:15:00,
2013-11-07 22:20:00,37.9,29.3,-100.00,WNW,295,0.0,0.0,71,0.00,,,0.00,meteohub,2013-11-08 04:20:00,
2013-11-07 22:25:00,37.6,29.3,-100.00,WNW,295,0.0,0.0,72,0.00,,,0.00,meteohub,2013-11-08 04:25:00,
2013-11-07 22:30:00,37.4,29.5,-100.00,WNW,295,0.0,0.0,73,0.00,,,0.00,meteohub,2013-11-08 04:30:00,
2013-11-07 22:35:00,37.2,29.3,-100.00,WNW,295,0.0,0.0,73,0.00,,,0.00,meteohub,2013-11-08 04:35:00,
2013-11-07 22:40:00,37.0,29.1,-100.00,WNW,295,0.0,0.0,73,0.00,,,0.00,meteohub,2013-11-08 04:40:00,
2013-11-07 22:45:00,36.9,28.9,-100.00,WNW,295,0.0,0.0,73,0.00,,,0.00,meteohub,2013-11-08 04:45:00,
2013-11-07 22:50:00,36.5,28.9,-100.00,WNW,295,0.0,0.0,74,0.00,,,0.00,meteohub,2013-11-08 04:50:00,
2013-11-07 22:55:00,36.3,28.8,-100.00,WNW,292,0.0,0.0,74,0.00,,,0.00,meteohub,2013-11-08 04:55:00,
2013-11-07 23:00:00,36.3,29.1,-100.00,WNW,292,0.0,0.0,75,0.00,,,0.00,meteohub,2013-11-08 05:00:00,
2013-11-07 23:01:00,36.3,29.1,-100.00,WNW,292,0.0,0.0,75,0.00,,,0.00,meteohub,2013-11-08 05:01:00,
2013-11-07 23:06:00,36.3,29.5,-100.00,WNW,292,0.0,0.0,76,0.00,,,0.00,meteohub,2013-11-08 05:06:00,
2013-11-07 23:11:00,36.7,29.8,-100.00,WNW,292,0.0,0.0,76,0.00,,,0.00,meteohub,2013-11-08 05:11:00,
2013-11-07 23:16:00,36.5,29.3,-100.00,WNW,292,0.0,0.0,75,0.00,,,0.00,meteohub,2013-11-08 05:16:00,
2013-11-07 23:21:00,36.3,29.1,-100.00,WNW,292,0.0,0.0,75,0.00,,,0.00,meteohub,2013-11-08 05:21:00,
2013-11-07 23:27:00,36.0,28.8,-100.00,WNW,292,0.0,0.0,75,0.00,,,0.00,meteohub,2013-11-08 05:27:00,
2013-11-07 23:32:00,35.6,28.4,-100.00,WNW,292,0.0,0.0,75,0.00,,,0.00,meteohub,2013-11-08 05:32:00,
2013-11-07 23:37:00,35.2,28.4,-100.00,WNW,292,0.0,0.0,76,0.00,,,0.00,meteohub,2013-11-08 05:37:00,
2013-11-07 23:42:00,34.9,28.0,-100.00,WNW,292,0.0,0.0,76,0.00,,,0.00,meteohub,2013-11-08 05:42:00,
2013-11-07 23:47:00,34.3,27.9,-100.00,WNW,292,0.0,0.0,77,0.00,,,0.00,meteohub,2013-11-08 05:47:00,
2013-11-07 23:52:00,34.3,27.9,-100.00,WNW,292,0.0,0.0,77,0.00,,,0.00,meteohub,2013-11-08 05:52:00,
2013-11-07 23:57:00,34.2,28.0,-100.00,WNW,292,0.0,0.0,78,0.00,,,0.00,meteohub,2013-11-08 05:57:00,